createdAt,value
2022-09-23T00:16:21.073Z,2.20
2022-09-23T00:20:13.389Z,2.00
2022-09-23T00:24:05.423Z,2.10
2022-09-23T00:43:47.877Z,2.70
2022-09-23T00:47:40.207Z,2.30
2022-09-23T01:03:30.124Z,2.10
2022-09-23T01:07:21.985Z,2.10
2022-09-23T01:11:17.321Z,2.10
2022-09-23T01:15:20.851Z,1.90
2022-09-23T01:23:19.699Z,2.00
2022-09-23T01:27:16.645Z,2.10
2022-09-23T01:31:12.838Z,2.30
2022-09-23T01:35:20.227Z,1.90
2022-09-23T01:39:15.311Z,2.30
2022-09-23T01:43:04.629Z,2.40
2022-09-23T01:46:56.723Z,2.60
2022-09-23T01:51:18.613Z,2.20
2022-09-23T01:55:20.425Z,2.20
2022-09-23T01:59:10.726Z,2.30
2022-09-23T02:03:11.581Z,2.40
2022-09-23T02:07:03.804Z,2.30
2022-09-23T02:11:04.837Z,2.30
2022-09-23T02:19:08.172Z,3.00
2022-09-23T02:23:01.398Z,3.50
2022-09-23T02:27:09.874Z,3.20
2022-09-23T02:31:14.357Z,2.70
2022-09-23T02:35:06.770Z,3.00
2022-09-23T02:39:01.431Z,2.90
2022-09-23T02:43:06.455Z,4.40
2022-09-23T02:50:46.924Z,6.10
2022-09-23T02:54:37.217Z,5.50
2022-09-23T02:58:32.082Z,9.00
2022-09-23T03:02:25.138Z,9.90
2022-09-23T03:06:20.053Z,9.60
2022-09-23T03:10:17.469Z,6.20
2022-09-23T03:14:03.478Z,6.00
2022-09-23T03:21:55.011Z,6.30
2022-09-23T03:25:47.242Z,6.10
2022-09-23T03:29:35.080Z,6.60
2022-09-23T04:00:35.678Z,4.90
2022-09-23T04:04:21.097Z,4.60
2022-09-23T04:08:12.292Z,4.30
2022-09-23T04:12:04.699Z,4.80
2022-09-23T04:27:52.186Z,5.30
2022-09-23T04:31:47.934Z,9.20
2022-09-23T04:35:40.572Z,12.80
2022-09-23T04:39:34.315Z,5.90
2022-09-23T04:59:08.798Z,5.10
2022-09-23T05:02:59.868Z,4.10
2022-09-23T05:22:15.774Z,7.30
2022-09-23T05:26:07.966Z,11.70
2022-09-23T05:30:01.476Z,13.60
2022-09-23T05:33:54.367Z,11.20
2022-09-23T05:49:59.591Z,6.40
2022-09-23T05:53:51.036Z,4.60
2022-09-23T05:57:44.027Z,7.20
2022-09-23T06:12:25.526Z,3.80
2022-09-23T06:16:18.226Z,3.30
2022-09-23T06:20:10.324Z,3.20
2022-09-23T06:24:05.990Z,3.10
2022-09-23T06:35:59.212Z,2.60
2022-09-23T06:39:53.165Z,2.70
2022-09-23T06:43:49.880Z,3.30
2022-09-23T06:59:23.757Z,2.00
2022-09-23T07:03:15.099Z,2.10
2022-09-23T07:07:07.165Z,2.10
2022-09-23T07:10:59.770Z,1.80
2022-09-23T07:30:17.875Z,2.40
2022-09-23T07:34:15.531Z,2.10
2022-09-23T07:38:08.802Z,2.00
2022-09-23T07:42:01.917Z,2.10
2022-09-23T07:57:52.569Z,1.90
2022-09-23T08:01:26.721Z,1.90
2022-09-23T08:05:09.189Z,1.90
2022-09-23T08:28:24.152Z,2.20
2022-09-23T08:32:15.967Z,2.20
2022-09-23T08:36:08.284Z,2.20
2022-09-23T08:39:53.222Z,2.10
2022-09-23T08:59:03.239Z,1.80
2022-09-23T09:02:56.685Z,2.30
2022-09-23T09:06:53.709Z,2.30
2022-09-23T09:10:43.407Z,1.90
2022-09-23T09:14:36.018Z,2.40
2022-09-23T09:18:43.645Z,1.70
2022-09-23T09:22:15.917Z,1.80
2022-09-23T09:26:28.907Z,1.40
2022-09-23T09:30:20.500Z,1.50
2022-09-23T09:34:22.634Z,1.40
2022-09-23T09:38:16.920Z,1.40
2022-09-23T09:42:01.840Z,1.50
2022-09-23T09:46:03.851Z,1.60
2022-09-23T09:50:11.838Z,1.60
2022-09-23T09:54:07.447Z,1.40
2022-09-23T09:57:56.940Z,1.60
2022-09-23T10:01:49.518Z,1.30
2022-09-23T10:05:32.759Z,1.50
2022-09-23T10:09:01.160Z,1.40
2022-09-23T10:12:38.945Z,1.50
2022-09-23T10:16:18.496Z,1.50
2022-09-23T10:19:55.734Z,1.60
2022-09-23T10:23:47.554Z,1.40
2022-09-23T10:27:39.697Z,1.70
2022-09-23T10:43:07.512Z,1.60
2022-09-23T11:10:53.392Z,1.70
2022-09-23T11:15:02.585Z,1.40
2022-09-23T11:19:06.194Z,1.20
2022-09-23T11:22:49.336Z,1.60
2022-09-23T11:26:46.626Z,1.30
2022-09-23T11:30:39.826Z,1.30
2022-09-23T11:34:43.475Z,1.30
2022-09-23T11:38:25.372Z,1.10
2022-09-23T11:42:20.617Z,1.00
2022-09-23T11:46:09.513Z,1.20
2022-09-23T11:50:12.998Z,1.20
2022-09-23T11:53:54.801Z,1.20
2022-09-23T11:57:48.188Z,1.10
2022-09-23T12:01:36.562Z,1.50
2022-09-23T12:05:29.625Z,2.00
2022-09-23T12:09:35.782Z,1.80
2022-09-23T12:13:38.657Z,2.40
2022-09-23T12:17:45.561Z,2.00
2022-09-23T12:25:18.626Z,2.10
2022-09-23T12:29:15.823Z,2.80
2022-09-23T12:33:08.240Z,2.80
2022-09-23T12:37:07.743Z,3.00
2022-09-23T12:41:05.357Z,1.80
2022-09-23T12:45:08.626Z,2.40
2022-09-23T12:48:59.364Z,2.10
2022-09-23T12:52:54.260Z,2.30
2022-09-23T12:56:50.505Z,2.00
2022-09-23T13:00:56.791Z,1.80
2022-09-23T13:04:47.078Z,1.60
2022-09-23T13:16:18.495Z,2.40
2022-09-23T13:47:21.964Z,1.90
2022-09-23T13:51:14.427Z,2.20
2022-09-23T13:55:08.330Z,2.50
2022-09-23T13:59:01.754Z,2.20
2022-09-23T14:02:55.594Z,1.90
2022-09-23T14:06:51.749Z,2.00
2022-09-23T15:53:36.059Z,4.70
2022-09-23T15:57:21.239Z,4.70
2022-09-23T16:01:16.439Z,3.80
2022-09-23T16:05:08.851Z,3.50
2022-09-23T16:24:45.205Z,6.50
2022-09-23T16:28:37.790Z,7.40
2022-09-23T16:32:29.928Z,13.80
2022-09-23T16:36:22.328Z,8.20
2022-09-23T16:55:40.981Z,14.30
2022-09-23T16:59:33.592Z,17.40
2022-09-23T17:03:25.141Z,18.80
2022-09-23T17:07:18.720Z,24.50
2022-09-23T17:19:07.592Z,44.50
2022-09-23T17:23:00.351Z,25.50
2022-09-23T17:26:53.708Z,13.60
2022-09-23T17:30:47.815Z,14.60
2022-09-23T17:50:16.077Z,14.30
2022-09-23T17:54:08.174Z,20.70
2022-09-23T17:58:03.525Z,16.60
2022-09-23T18:13:51.058Z,11.50
2022-09-23T18:17:42.962Z,12.70
2022-09-23T18:21:35.333Z,15.50
2022-09-23T18:25:39.122Z,12.90
2022-09-23T18:45:11.663Z,12.50
2022-09-23T18:49:00.479Z,10.30
2022-09-23T18:52:52.212Z,9.60
2022-09-23T19:12:32.685Z,5.60
2022-09-23T19:16:25.206Z,5.80
2022-09-23T19:20:13.984Z,8.50
2022-09-23T19:24:06.749Z,6.40
2022-09-23T19:40:07.667Z,10.30
2022-09-23T19:44:00.042Z,8.80
2022-09-23T19:47:51.285Z,8.20
2022-09-23T19:51:46.646Z,8.00
2022-09-23T20:03:30.443Z,9.10
2022-09-23T20:07:23.293Z,9.40
2022-09-23T20:11:13.212Z,8.70
2022-09-23T20:15:05.462Z,9.70
2022-09-23T20:27:04.305Z,9.70
2022-09-23T20:30:54.524Z,10.80
2022-09-23T20:46:56.322Z,11.60
2022-09-23T20:50:41.251Z,10.90
2022-09-23T20:54:33.343Z,10.80
2022-09-23T20:58:26.845Z,10.10
2022-09-23T21:17:35.470Z,10.30
2022-09-23T21:21:36.790Z,9.90
2022-09-23T21:25:31.841Z,9.70
2022-09-23T21:29:24.191Z,8.70
2022-09-23T21:33:16.320Z,8.70
2022-09-23T21:53:02.627Z,7.00
2022-09-23T21:56:56.083Z,6.90
2022-09-23T22:00:49.522Z,5.60
2022-09-23T22:04:40.017Z,6.30
2022-09-23T22:12:47.062Z,4.70
2022-09-23T22:16:38.405Z,6.10
2022-09-23T22:20:32.519Z,6.10
2022-09-23T22:36:22.280Z,5.80
2022-09-23T22:39:13.711Z,6.60
2022-09-23T22:43:05.253Z,5.70
2022-09-23T22:46:51.839Z,5.70
2022-09-23T23:06:08.688Z,3.90
2022-09-23T23:10:00.186Z,3.60
2022-09-23T23:13:55.151Z,3.60
2022-09-23T23:17:45.422Z,3.30
2022-09-23T23:21:38.374Z,3.40
2022-09-23T23:41:13.483Z,3.10
2022-09-23T23:45:06.454Z,4.80
2022-09-23T23:48:57.575Z,7.50
2022-09-23T23:52:48.890Z,12.90
